Time;durP1;ratioP1;P1;durP2;ratioP2;P2;SDS_P1;SDS_P2;PMS_P1;PMS_P2;Temp;Humidity;BMP_temperature;BMP_pressure;BME280_temperature;BME280_humidity;BME280_pressure;Samples;Min_cycle;Max_cycle;Signal;HPM_P1;HPM_P2
2021/12/27 00:00:37;;;;;;;5.63;2.90;;;20.00;41.40;;;;;;4994542;28;20105;-63
2021/12/27 00:03:03;;;;;;;5.78;3.60;;;20.00;41.40;;;;;;4993324;28;20092;-63
2021/12/27 00:05:29;;;;;;;7.03;3.50;;;19.90;41.30;;;;;;4993978;28;20414;-63
2021/12/27 00:07:54;;;;;;;5.95;3.45;;;19.90;41.30;;;;;;4993531;28;20061;-63
2021/12/27 00:10:21;;;;;;;5.28;3.17;;;19.90;41.30;;;;;;4993473;28;20042;-63
2021/12/27 00:12:47;;;;;;;5.50;3.08;;;19.90;41.30;;;;;;4993369;28;20042;-63
2021/12/27 00:15:13;;;;;;;5.00;3.10;;;19.90;41.30;;;;;;4993939;28;20035;-63
2021/12/27 00:17:43;;;;;;;4.65;2.88;;;19.90;41.40;;;;;;4992923;28;20077;-63
2021/12/27 00:20:10;;;;;;;6.75;3.58;;;19.90;41.30;;;;;;4992672;28;20501;-64
2021/12/27 00:22:36;;;;;;;5.55;3.13;;;19.80;41.30;;;;;;4994225;28;20038;-63
2021/12/27 00:25:02;;;;;;;6.63;3.33;;;19.80;41.30;;;;;;4992550;28;20058;-63
2021/12/27 00:27:27;;;;;;;5.28;3.00;;;19.80;41.30;;;;;;4993771;28;20056;-63
2021/12/27 00:29:53;;;;;;;6.22;3.50;;;19.80;41.20;;;;;;4993033;28;20482;-63
2021/12/27 00:32:19;;;;;;;4.65;2.83;;;19.80;41.30;;;;;;4993218;28;20034;-63
2021/12/27 00:34:45;;;;;;;5.65;3.10;;;19.80;41.30;;;;;;4993654;28;20505;-63
2021/12/27 00:37:10;;;;;;;5.53;3.35;;;19.80;41.30;;;;;;4991854;28;20150;-62
2021/12/27 00:39:36;;;;;;;5.45;3.08;;;19.80;41.30;;;;;;4993233;28;20069;-62
2021/12/27 00:42:02;;;;;;;6.22;3.28;;;19.80;41.30;;;;;;4992868;28;20561;-63
2021/12/27 00:44:27;;;;;;;5.40;3.10;;;19.80;41.40;;;;;;4993418;28;20133;-62
2021/12/27 00:46:53;;;;;;;5.75;2.70;;;19.80;41.30;;;;;;4989533;28;20074;-62
2021/12/27 00:49:19;;;;;;;5.97;3.33;;;19.80;41.40;;;;;;4993656;28;20125;-62
2021/12/27 00:51:44;;;;;;;5.38;2.92;;;19.80;41.30;;;;;;4991523;28;20038;-62
2021/12/27 00:54:10;;;;;;;5.00;2.85;;;19.80;41.30;;;;;;4993146;28;20050;-62
2021/12/27 00:56:35;;;;;;;4.93;2.90;;;19.80;41.30;;;;;;4992395;28;20441;-62
2021/12/27 00:59:01;;;;;;;6.28;3.30;;;19.80;41.20;;;;;;4991758;28;20038;-62
2021/12/27 01:01:26;;;;;;;4.88;3.03;;;19.80;41.20;;;;;;4993224;28;20050;-62
2021/12/27 01:03:52;;;;;;;4.63;2.88;;;19.80;41.20;;;;;;4992047;28;20038;-62
2021/12/27 01:06:20;;;;;;;6.00;3.40;;;19.80;41.20;;;;;;4991104;28;20133;-62
2021/12/27 01:08:45;;;;;;;5.78;2.95;;;19.80;41.20;;;;;;4991981;28;20145;-63
2021/12/27 01:14:26;;;;;;;4.90;2.85;;;19.90;41.20;;;;;;4990754;28;20137;-62
2021/12/27 01:16:51;;;;;;;5.03;3.08;;;19.90;41.20;;;;;;4992068;28;20046;-62
2021/12/27 01:19:17;;;;;;;6.22;2.83;;;19.80;41.20;;;;;;4991968;28;20090;-62
2021/12/27 01:21:42;;;;;;;4.95;2.80;;;19.90;41.20;;;;;;4990764;28;20038;-62
2021/12/27 01:24:08;;;;;;;5.38;3.03;;;19.80;41.10;;;;;;4992559;28;20505;-63
2021/12/27 01:26:33;;;;;;;4.45;2.78;;;19.90;41.20;;;;;;4992991;28;20070;-63
2021/12/27 01:29:02;;;;;;;6.20;3.35;;;19.90;41.20;;;;;;4990645;28;20140;-63
2021/12/27 01:31:28;;;;;;;;;;;19.90;41.20;;;;;;4991931;28;20049;-63
2021/12/27 01:33:53;;;;;;;4.55;2.90;;;19.90;41.20;;;;;;4990715;28;19921;-63
2021/12/27 01:36:19;;;;;;;4.72;3.10;;;19.80;41.20;;;;;;4991990;28;20101;-63
2021/12/27 01:38:45;;;;;;;5.72;3.00;;;19.90;41.20;;;;;;4991438;28;20070;-63
2021/12/27 01:41:13;;;;;;;5.25;3.05;;;19.90;41.20;;;;;;4990658;28;20165;-63
2021/12/27 01:43:39;;;;;;;4.38;2.78;;;19.90;41.20;;;;;;4992815;28;20129;-62
2021/12/27 01:46:09;;;;;;;4.82;2.70;;;19.90;41.20;;;;;;4991329;28;20073;-63
2021/12/27 01:48:38;;;;;;;4.05;2.72;;;19.90;41.10;;;;;;4991047;28;20046;-63
2021/12/27 01:51:08;;;;;;;5.68;3.25;;;19.90;41.20;;;;;;4992645;28;20092;-63
2021/12/27 01:53:35;;;;;;;4.57;2.83;;;19.90;41.20;;;;;;4991205;28;20173;-63
2021/12/27 01:56:01;;;;;;;5.00;2.60;;;19.90;41.10;;;;;;4989492;28;20046;-63
2021/12/27 01:58:27;;;;;;;6.00;3.45;;;19.90;41.10;;;;;;4992283;28;20092;-63
2021/12/27 02:00:54;;;;;;;4.57;2.90;;;19.90;41.10;;;;;;4991121;28;20513;-63
2021/12/27 02:03:20;;;;;;;5.32;3.00;;;19.90;41.10;;;;;;4992025;28;20046;-63
2021/12/27 02:05:46;;;;;;;5.10;3.20;;;19.90;41.10;;;;;;4992071;28;20046;-63
2021/12/27 02:08:11;;;;;;;4.28;3.05;;;19.90;41.10;;;;;;4991611;28;20069;-62
2021/12/27 02:10:38;;;;;;;5.38;3.17;;;19.90;41.10;;;;;;4991992;28;20170;-63
2021/12/27 02:13:03;;;;;;;5.07;3.20;;;19.90;41.20;;;;;;4994643;28;20046;-63
2021/12/27 02:15:29;;;;;;;4.65;2.90;;;19.90;41.10;;;;;;4996495;28;20393;-63
2021/12/27 02:17:54;;;;;;;5.07;2.78;;;19.90;41.10;;;;;;4995487;28;20406;-63
2021/12/27 02:20:25;;;;;;;4.50;3.03;;;19.90;41.10;;;;;;4996194;28;20125;-63
2021/12/27 02:22:51;;;;;;;4.72;2.95;;;19.90;41.10;;;;;;4995847;28;20070;-63
2021/12/27 02:25:17;;;;;;;5.10;3.25;;;19.90;41.10;;;;;;4995687;28;20053;-63
2021/12/27 02:27:43;;;;;;;5.22;2.90;;;19.90;41.10;;;;;;4994124;28;20034;-63
2021/12/27 02:30:10;;;;;;;5.25;3.17;;;19.90;41.10;;;;;;4993163;28;20042;-63
2021/12/27 02:32:53;;;;;;;5.22;3.40;;;19.90;41.10;;;;;;4994973;28;20543;-63
2021/12/27 02:35:23;;;;;;;4.25;2.85;;;19.90;41.10;;;;;;4995986;28;20108;-63
2021/12/27 02:37:49;;;;;;;4.50;2.85;;;19.90;41.10;;;;;;4993073;28;20046;-63
2021/12/27 02:40:14;;;;;;;5.10;3.13;;;20.00;41.20;;;;;;4996274;28;20072;-63
2021/12/27 02:42:56;;;;;;;5.15;3.10;;;19.90;41.10;;;;;;4996198;28;20050;-63
2021/12/27 02:45:22;;;;;;;5.57;3.22;;;20.00;41.20;;;;;;4994929;28;20493;-63
2021/12/27 02:47:47;;;;;;;4.72;2.63;;;20.00;41.20;;;;;;4994223;28;20133;-63
2021/12/27 02:50:13;;;;;;;5.30;3.13;;;20.00;41.10;;;;;;4995498;28;20065;-63
2021/12/27 02:52:38;;;;;;;4.93;3.28;;;20.00;41.10;;;;;;4994703;28;20097;-63
2021/12/27 02:55:04;;;;;;;5.70;2.92;;;20.00;41.10;;;;;;4994228;28;20494;-63
2021/12/27 02:57:30;;;;;;;5.20;3.30;;;20.00;41.00;;;;;;4995359;28;20066;-63
2021/12/27 02:59:57;;;;;;;4.90;2.80;;;20.00;41.00;;;;;;4994639;28;20078;-63
2021/12/27 03:02:25;;;;;;;4.13;2.78;;;20.00;41.10;;;;;;4991541;28;20085;-63
2021/12/27 03:04:51;;;;;;;4.85;3.05;;;20.00;41.00;;;;;;4993285;28;20413;-63
2021/12/27 03:07:16;;;;;;;5.88;3.40;;;20.00;41.00;;;;;;5006835;28;20062;-63
2021/12/27 03:09:42;;;;;;;6.22;3.08;;;20.00;40.90;;;;;;4994503;28;20042;-62
2021/12/27 03:12:11;;;;;;;5.18;2.78;;;20.00;40.90;;;;;;4995586;28;20038;-63
2021/12/27 03:14:36;;;;;;;4.88;3.10;;;20.00;40.90;;;;;;4993576;28;20379;-63
2021/12/27 03:17:02;;;;;;;4.45;2.95;;;20.00;40.90;;;;;;4993569;28;20126;-63
2021/12/27 03:19:28;;;;;;;4.95;3.13;;;20.00;40.90;;;;;;4993531;28;20128;-63
2021/12/27 03:21:53;;;;;;;4.43;3.03;;;20.00;40.90;;;;;;4993184;28;20506;-63
2021/12/27 03:24:19;;;;;;;6.35;3.17;;;20.00;40.90;;;;;;4994658;28;20045;-63
2021/12/27 03:26:44;;;;;;;4.15;2.95;;;20.00;40.90;;;;;;4992959;28;20133;-63
2021/12/27 03:29:10;;;;;;;5.32;3.10;;;20.00;40.90;;;;;;4993955;28;20125;-63
2021/12/27 03:31:37;;;;;;;6.32;2.90;;;20.00;40.90;;;;;;4995137;28;20363;-62
2021/12/27 03:34:04;;;;;;;5.50;2.88;;;20.00;40.90;;;;;;4992836;28;20034;-63
2021/12/27 03:36:36;;;;;;;4.43;2.85;;;20.00;40.90;;;;;;4993371;28;20125;-63
2021/12/27 03:39:02;;;;;;;4.28;2.90;;;20.00;40.90;;;;;;4993272;28;20505;-63
2021/12/27 03:41:27;;;;;;;4.57;3.00;;;20.00;40.90;;;;;;4994132;28;20085;-63
2021/12/27 03:43:53;;;;;;;5.80;3.30;;;20.00;40.90;;;;;;4993476;28;20509;-63
2021/12/27 03:46:18;;;;;;;5.70;3.42;;;20.00;41.00;;;;;;4994905;28;20051;-63
2021/12/27 03:48:44;;;;;;;6.25;3.67;;;20.00;40.90;;;;;;4992703;28;20398;-63
2021/12/27 03:51:09;;;;;;;6.95;3.50;;;20.00;40.90;;;;;;4994504;28;20049;-63
2021/12/27 03:53:35;;;;;;;4.78;2.97;;;20.00;40.90;;;;;;4994421;28;20070;-63
2021/12/27 03:56:01;;;;;;;4.85;2.92;;;20.00;40.90;;;;;;4992194;28;20061;-63
2021/12/27 03:58:33;;;;;;;6.00;3.45;;;20.00;40.90;;;;;;4994393;28;20100;-63
2021/12/27 04:01:16;;;;;;;4.80;3.03;;;20.00;40.90;;;;;;4994390;28;20481;-63
2021/12/27 04:03:43;;;;;;;5.70;3.20;;;20.00;40.90;;;;;;4992307;28;20092;-63
2021/12/27 04:06:09;;;;;;;6.00;3.63;;;20.00;40.90;;;;;;4992715;28;20510;-63
2021/12/27 04:08:34;;;;;;;5.47;3.17;;;20.00;40.90;;;;;;4992137;28;20820;-63
2021/12/27 04:11:00;;;;;;;6.05;3.15;;;20.00;41.00;;;;;;4993758;28;20050;-63
2021/12/27 04:13:25;;;;;;;5.03;2.72;;;20.00;41.00;;;;;;4994435;28;20053;-63
2021/12/27 04:15:51;;;;;;;4.78;3.00;;;20.00;41.00;;;;;;4993019;28;20050;-63
2021/12/27 04:18:17;;;;;;;5.13;2.70;;;20.00;41.00;;;;;;4993874;28;20133;-63
2021/12/27 04:20:42;;;;;;;4.90;3.00;;;20.00;41.00;;;;;;4993609;28;20125;-63
2021/12/27 04:23:08;;;;;;;5.60;3.40;;;20.00;40.90;;;;;;4991561;28;20050;-63
2021/12/27 04:25:33;;;;;;;5.13;3.30;;;20.00;40.90;;;;;;4993018;28;20133;-63
2021/12/27 04:27:59;;;;;;;5.22;3.50;;;20.00;40.90;;;;;;4992411;28;20050;-63
2021/12/27 04:30:25;;;;;;;5.03;3.00;;;20.00;40.90;;;;;;4991802;28;20052;-63
2021/12/27 04:32:50;;;;;;;5.97;3.40;;;20.00;40.90;;;;;;4992018;28;20050;-63
2021/12/27 04:35:17;;;;;;;5.10;3.08;;;20.10;41.00;;;;;;4993444;28;20500;-63
2021/12/27 04:37:42;;;;;;;4.65;2.75;;;20.10;41.00;;;;;;4991634;28;20057;-63
2021/12/27 04:40:09;;;;;;;4.95;3.28;;;20.10;41.00;;;;;;4993750;28;20046;-63
2021/12/27 04:42:35;;;;;;;4.63;2.88;;;20.10;40.90;;;;;;4993206;28;20040;-63
2021/12/27 04:45:01;;;;;;;4.72;3.10;;;20.10;40.90;;;;;;4991238;28;20076;-63
2021/12/27 04:47:26;;;;;;;4.72;2.85;;;20.10;41.00;;;;;;4993138;28;20131;-63
2021/12/27 04:49:52;;;;;;;5.50;3.17;;;20.10;41.00;;;;;;4992902;28;20485;-63
2021/12/27 04:52:17;;;;;;;5.32;3.08;;;20.10;41.00;;;;;;4992941;28;20418;-63
2021/12/27 04:54:43;;;;;;;4.55;2.92;;;20.10;41.00;;;;;;4991897;28;20053;-63
2021/12/27 04:57:09;;;;;;;6.20;3.45;;;20.10;41.00;;;;;;4981727;28;20778;-66
2021/12/27 04:59:34;;;;;;;5.63;3.33;;;20.10;41.10;;;;;;4991665;28;20053;-63
2021/12/27 05:02:00;;;;;;;5.72;3.10;;;20.10;41.00;;;;;;4985192;28;20561;-63
2021/12/27 05:04:25;;;;;;;4.85;2.90;;;20.10;41.10;;;;;;4990761;28;20065;-62
2021/12/27 05:06:51;;;;;;;4.63;3.00;;;20.10;41.10;;;;;;4990437;28;20134;-63
2021/12/27 05:09:16;;;;;;;4.70;3.05;;;20.10;41.10;;;;;;4991540;28;20085;-63
2021/12/27 05:11:42;;;;;;;5.65;3.13;;;20.00;41.00;;;;;;4991305;28;20121;-63
2021/12/27 05:14:07;;;;;;;4.72;3.03;;;20.10;41.00;;;;;;4992356;28;20050;-63
2021/12/27 05:16:33;;;;;;;5.07;3.10;;;20.00;40.90;;;;;;4993239;28;20516;-63
2021/12/27 05:18:59;;;;;;;5.57;3.30;;;20.10;41.00;;;;;;4992324;28;20490;-63
2021/12/27 05:21:24;;;;;;;6.18;3.17;;;20.10;41.00;;;;;;4992004;28;20038;-63
2021/12/27 05:23:50;;;;;;;5.07;3.20;;;20.10;41.00;;;;;;4991601;28;20053;-63
2021/12/27 05:26:15;;;;;;;4.85;2.85;;;20.10;40.90;;;;;;4992433;28;20046;-63
2021/12/27 05:28:41;;;;;;;3.95;2.80;;;20.10;40.90;;;;;;4992759;28;20046;-63
2021/12/27 05:31:06;;;;;;;5.45;3.20;;;20.10;41.00;;;;;;4991701;28;20046;-63
2021/12/27 05:33:32;;;;;;;5.03;3.20;;;20.10;41.00;;;;;;4992299;28;20061;-62
2021/12/27 05:35:57;;;;;;;4.80;3.00;;;20.10;40.90;;;;;;4991240;28;20419;-63
2021/12/27 05:38:23;;;;;;;5.75;3.40;;;20.10;40.90;;;;;;4992757;28;20081;-63
2021/12/27 05:40:49;;;;;;;5.07;2.95;;;20.10;40.90;;;;;;4991519;28;20062;-63
2021/12/27 05:43:14;;;;;;;5.35;3.28;;;20.10;40.90;;;;;;4991724;28;20061;-62
2021/12/27 05:45:40;;;;;;;6.22;3.40;;;20.10;40.90;;;;;;4993975;28;20129;-62
2021/12/27 05:48:06;;;;;;;4.55;2.90;;;20.10;40.90;;;;;;4994799;28;20437;-63
2021/12/27 05:50:31;;;;;;;4.80;3.00;;;20.10;40.90;;;;;;4995571;28;20140;-62
2021/12/27 05:52:57;;;;;;;5.20;3.30;;;20.10;41.00;;;;;;4996489;28;20137;-63
2021/12/27 05:55:22;;;;;;;5.57;3.10;;;20.10;41.00;;;;;;4994743;28;20501;-63
2021/12/27 05:57:48;;;;;;;5.15;3.28;;;20.10;41.00;;;;;;4994638;28;20038;-63
2021/12/27 06:00:15;;;;;;;4.78;3.17;;;20.10;41.00;;;;;;4996814;28;20049;-62
2021/12/27 06:02:41;;;;;;;4.72;2.83;;;20.10;41.00;;;;;;4995585;28;20074;-62
2021/12/27 06:05:07;;;;;;;5.25;3.35;;;20.10;41.00;;;;;;4996021;28;20057;-62
2021/12/27 06:07:33;;;;;;;5.25;3.17;;;20.10;41.00;;;;;;4995051;28;20046;-62
2021/12/27 06:09:58;;;;;;;5.30;3.20;;;20.10;41.00;;;;;;4995096;28;20064;-62
2021/12/27 06:12:24;;;;;;;6.22;3.45;;;20.10;41.00;;;;;;4995064;28;20039;-62
2021/12/27 06:14:49;;;;;;;5.95;3.08;;;20.10;41.00;;;;;;4996437;28;20046;-62
2021/12/27 06:17:15;;;;;;;5.53;2.95;;;20.10;41.00;;;;;;4995539;28;20082;-62
2021/12/27 06:19:40;;;;;;;5.95;3.33;;;20.10;41.00;;;;;;4995803;28;20050;-62
2021/12/27 06:22:06;;;;;;;6.00;3.50;;;20.10;41.00;;;;;;4996444;28;20104;-62
2021/12/27 06:24:31;;;;;;;5.78;3.38;;;20.10;41.00;;;;;;4994026;28;20133;-63
2021/12/27 06:26:57;;;;;;;4.75;2.90;;;20.10;41.00;;;;;;4994674;28;20042;-63
2021/12/27 06:29:22;;;;;;;6.20;3.78;;;20.10;41.10;;;;;;4995552;28;20039;-63
2021/12/27 06:31:48;;;;;;;4.85;3.00;;;20.10;41.00;;;;;;4995946;28;20042;-63
2021/12/27 06:34:14;;;;;;;4.05;2.85;;;20.10;41.00;;;;;;4996350;28;20038;-62
2021/12/27 06:36:39;;;;;;;5.78;3.30;;;20.20;41.10;;;;;;4995393;28;20042;-63
2021/12/27 06:39:05;;;;;;;5.38;3.33;;;20.10;41.10;;;;;;4995392;28;20453;-63
2021/12/27 06:41:31;;;;;;;5.82;3.55;;;20.10;41.00;;;;;;4994622;28;20038;-63
2021/12/27 06:43:56;;;;;;;4.60;2.90;;;20.10;41.00;;;;;;4993522;28;20116;-63
2021/12/27 06:46:23;;;;;;;5.38;3.53;;;20.10;40.90;;;;;;4994728;28;20082;-63
2021/12/27 06:48:49;;;;;;;5.13;3.30;;;20.20;41.00;;;;;;4994127;28;20100;-63
2021/12/27 06:51:14;;;;;;;4.55;2.90;;;20.10;41.00;;;;;;4994889;28;20050;-63
2021/12/27 06:53:40;;;;;;;4.72;3.00;;;20.20;41.00;;;;;;4994475;28;20042;-63
2021/12/27 06:56:06;;;;;;;4.55;2.97;;;20.20;41.00;;;;;;4995528;28;20097;-63
2021/12/27 06:58:31;;;;;;;4.60;2.97;;;20.20;41.00;;;;;;4993448;28;20069;-62
2021/12/27 07:00:57;;;;;;;4.53;2.83;;;20.20;41.00;;;;;;4993935;28;20042;-63
2021/12/27 07:03:22;;;;;;;5.85;3.17;;;20.20;41.00;;;;;;4995316;28;20054;-62
2021/12/27 07:05:48;;;;;;;4.50;3.05;;;20.20;41.00;;;;;;4993119;28;20057;-62
2021/12/27 07:08:14;;;;;;;5.32;3.45;;;20.20;41.20;;;;;;4993586;28;20519;-62
2021/12/27 07:10:40;;;;;;;5.30;3.10;;;20.20;41.10;;;;;;4994097;28;20082;-62
2021/12/27 07:13:06;;;;;;;5.60;3.28;;;20.20;41.00;;;;;;4994889;28;20078;-63
2021/12/27 07:15:32;;;;;;;4.18;2.90;;;20.20;41.00;;;;;;4994149;28;20078;-63
2021/12/27 07:17:57;;;;;;;6.32;3.35;;;20.20;41.00;;;;;;4993796;28;20099;-62
2021/12/27 07:20:23;;;;;;;7.47;3.20;;;20.20;41.00;;;;;;4994468;28;20196;-62
2021/12/27 07:22:49;;;;;;;8.70;3.30;;;20.20;41.10;;;;;;4995102;28;20110;-62
2021/12/27 07:25:15;;;;;;;5.82;3.05;;;20.20;41.10;;;;;;4995168;28;20049;-62
2021/12/27 07:27:40;;;;;;;5.53;3.40;;;20.20;41.10;;;;;;4992175;28;20081;-62
2021/12/27 07:30:08;;;;;;;7.28;3.53;;;20.20;41.20;;;;;;4994290;28;20045;-62
2021/12/27 07:32:34;;;;;;;6.13;3.00;;;20.20;41.30;;;;;;4994399;28;20050;-62
2021/12/27 07:34:59;;;;;;;4.93;3.00;;;20.20;41.40;;;;;;4994328;28;20050;-61
2021/12/27 07:37:25;;;;;;;5.10;2.90;;;20.20;41.60;;;;;;4994558;28;20089;-62
2021/12/27 07:39:50;;;;;;;4.60;2.55;;;20.20;41.80;;;;;;4992632;28;20046;-62
2021/12/27 07:42:16;;;;;;;6.10;3.38;;;20.20;41.90;;;;;;4994846;28;20042;-61
2021/12/27 07:44:42;;;;;;;4.80;3.00;;;20.20;42.10;;;;;;4994651;28;20046;-62
2021/12/27 07:47:07;;;;;;;5.63;3.30;;;20.30;42.30;;;;;;4994336;28;20054;-62
2021/12/27 07:49:33;;;;;;;5.53;3.22;;;20.30;42.40;;;;;;4993307;28;20133;-63
2021/12/27 07:51:58;;;;;;;6.07;3.28;;;20.30;42.50;;;;;;4992530;28;20077;-63
2021/12/27 07:54:24;;;;;;;5.78;3.00;;;20.30;42.60;;;;;;4994066;28;20042;-62
2021/12/27 07:56:49;;;;;;;5.90;3.30;;;20.30;43.50;;;;;;4993015;28;20056;-63
2021/12/27 07:59:15;;;;;;;5.53;3.03;;;20.30;42.80;;;;;;4994576;28;20045;-63
2021/12/27 08:01:41;;;;;;;6.50;3.38;;;20.30;42.90;;;;;;4993530;28;20085;-64
2021/12/27 08:04:06;;;;;;;5.03;2.65;;;20.30;43.00;;;;;;4993485;28;20046;-64
2021/12/27 08:06:32;;;;;;;5.40;3.20;;;20.30;43.00;;;;;;4993047;28;20486;-64
2021/12/27 08:08:58;;;;;;;5.88;3.10;;;20.30;43.10;;;;;;4991632;28;20050;-64
2021/12/27 08:11:24;;;;;;;9.38;2.80;;;20.30;43.10;;;;;;4994588;28;20042;-65
2021/12/27 08:13:50;;;;;;;6.00;3.20;;;20.30;43.20;;;;;;4992721;28;20047;-64
2021/12/27 08:16:17;;;;;;;10.30;3.38;;;20.30;43.20;;;;;;4993451;28;20062;-64
2021/12/27 08:18:42;;;;;;;5.40;3.13;;;20.30;43.20;;;;;;4993541;28;20066;-63
2021/12/27 08:21:08;;;;;;;6.80;3.58;;;20.30;43.20;;;;;;4994036;28;20237;-62
2021/12/27 08:23:33;;;;;;;8.07;3.25;;;20.30;43.20;;;;;;4993341;28;20128;-62
2021/12/27 08:25:59;;;;;;;6.43;3.10;;;20.30;43.20;;;;;;4992798;28;20505;-63
2021/12/27 08:28:25;;;;;;;6.22;3.20;;;20.40;43.30;;;;;;4993559;28;20049;-63
2021/12/27 08:30:50;;;;;;;6.38;3.13;;;20.40;43.20;;;;;;4992223;28;20042;-63
2021/12/27 08:33:16;;;;;;;5.25;3.00;;;20.40;43.30;;;;;;4993639;28;20394;-63
2021/12/27 08:35:42;;;;;;;6.40;3.20;;;20.40;43.50;;;;;;4992843;28;20046;-61
2021/12/27 08:38:07;;;;;;;5.63;2.97;;;20.40;43.40;;;;;;4991814;28;20058;-60
2021/12/27 08:40:33;;;;;;;4.90;2.83;;;20.40;43.30;;;;;;4993939;28;20068;-63
2021/12/27 08:42:58;;;;;;;5.45;3.25;;;20.40;43.20;;;;;;4993023;28;20164;-63
2021/12/27 08:45:24;;;;;;;5.43;3.10;;;20.40;43.30;;;;;;4993760;28;20117;-63
2021/12/27 08:47:49;;;;;;;5.07;3.35;;;20.40;43.30;;;;;;4992467;28;20507;-62
2021/12/27 08:50:17;;;;;;;6.60;2.80;;;20.40;43.40;;;;;;4990557;28;20097;-62
2021/12/27 08:52:47;;;;;;;7.07;3.37;;;20.40;43.40;;;;;;4991896;28;20046;-62
2021/12/27 08:55:12;;;;;;;5.75;3.38;;;20.40;43.40;;;;;;4993425;28;20050;-62
2021/12/27 08:57:38;;;;;;;6.22;3.30;;;20.40;43.30;;;;;;4992633;28;20042;-62
2021/12/27 09:00:05;;;;;;;5.25;3.17;;;20.40;43.20;;;;;;4993171;28;20054;-62
2021/12/27 09:02:31;;;;;;;6.33;3.30;;;20.40;43.20;;;;;;4993691;28;20107;-62
2021/12/27 09:04:56;;;;;;;6.95;3.40;;;20.40;43.20;;;;;;4992334;28;20347;-63
2021/12/27 09:07:22;;;;;;;5.82;3.22;;;20.40;43.20;;;;;;4993037;28;20394;-62
2021/12/27 09:09:48;;;;;;;4.63;3.20;;;20.40;43.10;;;;;;4991839;28;20053;-62
2021/12/27 09:12:14;;;;;;;6.47;3.47;;;20.40;43.10;;;;;;4992672;28;20120;-62
2021/12/27 09:14:39;;;;;;;6.40;3.40;;;20.40;43.10;;;;;;4993345;28;20058;-62
2021/12/27 09:17:05;;;;;;;7.22;3.40;;;20.40;43.10;;;;;;4993374;28;20035;-62
2021/12/27 09:19:30;;;;;;;4.93;3.00;;;20.40;43.10;;;;;;4991866;28;20046;-61
2021/12/27 09:21:56;;;;;;;6.03;3.45;;;20.40;43.10;;;;;;4991474;28;20117;-61
2021/12/27 09:24:22;;;;;;;7.13;3.13;;;20.40;43.10;;;;;;4991649;28;20050;-67
2021/12/27 09:26:48;;;;;;;6.70;3.58;;;20.40;43.10;;;;;;4990877;28;20070;-61
2021/12/27 09:29:13;;;;;;;6.93;3.63;;;20.40;43.00;;;;;;4992021;28;20092;-63
2021/12/27 09:31:39;;;;;;;9.75;3.85;;;20.40;43.00;;;;;;4991856;28;20054;-62
2021/12/27 09:34:04;;;;;;;7.90;3.95;;;20.40;43.00;;;;;;4990809;28;20096;-62
2021/12/27 09:36:30;;;;;;;6.55;3.67;;;20.40;43.10;;;;;;4991638;28;20088;-62
2021/12/27 09:38:55;;;;;;;6.55;3.58;;;20.40;43.20;;;;;;4991814;28;20101;-62
2021/12/27 09:41:21;;;;;;;9.43;4.00;;;20.40;43.30;;;;;;4992611;28;20430;-63
2021/12/27 09:43:47;;;;;;;6.88;3.72;;;20.40;43.60;;;;;;4992967;28;20482;-62
2021/12/27 09:46:13;;;;;;;7.63;3.50;;;20.40;43.70;;;;;;4991000;28;20054;-62
2021/12/27 09:48:39;;;;;;;9.13;4.13;;;20.40;43.70;;;;;;4993163;28;20053;-62
2021/12/27 09:51:05;;;;;;;6.50;3.55;;;20.40;43.80;;;;;;4992204;28;20556;-62
2021/12/27 09:53:30;;;;;;;8.40;3.83;;;20.40;43.80;;;;;;4990933;28;20046;-62
2021/12/27 09:55:55;;;;;;;7.30;3.65;;;20.40;43.80;;;;;;4992798;28;20069;-62
2021/12/27 09:58:21;;;;;;;9.02;3.80;;;20.40;43.90;;;;;;4992031;28;20046;-62
2021/12/27 10:00:47;;;;;;;8.45;3.72;;;20.40;43.90;;;;;;4989973;28;20046;-61
2021/12/27 10:03:12;;;;;;;10.65;4.78;;;20.50;43.90;;;;;;4992173;28;20093;-61
2021/12/27 10:05:38;;;;;;;9.45;3.92;;;20.50;43.80;;;;;;4991703;28;20066;-61
2021/12/27 10:08:04;;;;;;;10.77;4.68;;;20.50;43.60;;;;;;4991981;28;20050;-60
2021/12/27 10:10:35;;;;;;;10.18;4.40;;;20.50;43.50;;;;;;4992552;28;20077;-61
2021/12/27 10:13:08;;;;;;;10.70;4.97;;;20.40;43.20;;;;;;4971611;28;20046;-61
2021/12/27 10:15:39;;;;;;;10.45;4.72;;;20.40;43.00;;;;;;4971224;28;20054;-60
2021/12/27 10:18:11;;;;;;;9.40;5.03;;;20.40;43.00;;;;;;4971851;28;20062;-60
2021/12/27 10:20:37;;;;;;;8.98;4.50;;;20.40;42.80;;;;;;4973497;28;20058;-60
2021/12/27 10:23:02;;;;;;;10.85;5.03;;;20.40;42.80;;;;;;4972456;28;20043;-60
2021/12/27 10:25:28;;;;;;;11.68;5.45;;;20.40;42.70;;;;;;4973536;28;20046;-61
2021/12/27 10:27:55;;;;;;;11.82;5.25;;;20.40;42.60;;;;;;4972019;28;20121;-65
2021/12/27 10:30:23;;;;;;;14.65;4.72;;;20.40;42.70;;;;;;4972321;28;20105;-64
2021/12/27 10:33:06;;;;;;;12.48;5.40;;;20.40;42.50;;;;;;4975416;28;20051;-64
2021/12/27 10:35:41;;;;;;;16.05;5.65;;;20.40;42.40;;;;;;4975869;28;20475;-64
2021/12/27 10:38:18;;;;;;;13.50;5.72;;;20.30;43.00;;;;;;4975596;28;20129;-66
2021/12/27 10:40:48;;;;;;;13.67;5.33;;;20.30;42.70;;;;;;4975251;28;20549;-59
2021/12/27 10:43:15;;;;;;;13.05;5.35;;;20.30;42.50;;;;;;4975835;28;20312;-60
2021/12/27 10:45:40;;;;;;;13.13;5.32;;;20.30;42.60;;;;;;4975041;28;20070;-62
2021/12/27 10:48:06;;;;;;;14.25;5.32;;;20.30;42.90;;;;;;4966996;28;20153;-63
2021/12/27 10:50:32;;;;;;;13.32;5.47;;;20.30;43.30;;;;;;4993750;28;20053;-63
2021/12/27 10:52:59;;;;;;;10.68;4.68;;;20.30;43.60;;;;;;4993455;28;20053;-62
2021/12/27 10:55:38;;;;;;;10.43;4.70;;;20.40;43.80;;;;;;4995117;28;20073;-63
2021/12/27 10:58:11;;;;;;;13.50;5.13;;;20.40;44.00;;;;;;4997883;28;20043;-63
2021/12/27 11:00:37;;;;;;;9.27;4.22;;;20.40;44.30;;;;;;4994410;28;20050;-62
2021/12/27 11:03:02;;;;;;;11.98;4.78;;;20.40;44.30;;;;;;4989331;28;20764;-62
2021/12/27 11:05:30;;;;;;;10.73;4.30;;;20.40;44.40;;;;;;4985477;28;20069;-63
2021/12/27 11:08:03;;;;;;;9.95;4.40;;;20.40;44.50;;;;;;4978625;28;20050;-63
2021/12/27 11:10:29;;;;;;;9.55;4.30;;;20.40;44.70;;;;;;4982172;28;20069;-63
2021/12/27 11:12:59;;;;;;;13.32;4.75;;;20.40;44.70;;;;;;4979472;28;20050;-63
2021/12/27 11:15:26;;;;;;;11.00;4.55;;;20.40;44.80;;;;;;4979523;28;20034;-63
2021/12/27 11:17:52;;;;;;;10.13;4.27;;;20.50;44.90;;;;;;4978376;28;20045;-63
2021/12/27 11:20:17;;;;;;;10.60;4.25;;;20.50;45.70;;;;;;4981780;28;20126;-64
2021/12/27 11:22:43;;;;;;;9.15;3.78;;;20.50;45.00;;;;;;4979052;28;20038;-64
2021/12/27 11:25:43;;;;;;;11.25;4.20;;;20.50;45.10;;;;;;4981709;28;20046;-63
2021/12/27 11:28:38;;;;;;;7.60;3.72;;;20.50;45.30;;;;;;5006848;28;20057;-64
2021/12/27 11:31:17;;;;;;;10.80;4.70;;;20.50;45.50;;;;;;4981392;28;20406;-63
2021/12/27 11:34:06;;;;;;;11.38;4.80;;;20.50;45.30;;;;;;4993055;28;20094;-63
2021/12/27 11:36:33;;;;;;;;;;;20.50;45.30;;;;;;4977389;28;20501;-63
2021/12/27 11:38:59;;;;;;;10.38;4.93;;;20.50;45.20;;;;;;4993860;28;19964;-63
2021/12/27 11:41:32;;;;;;;13.77;4.70;;;20.50;45.20;;;;;;4978038;28;20360;-63
2021/12/27 11:44:08;;;;;;;10.82;4.35;;;20.50;45.10;;;;;;4993948;28;20398;-63
2021/12/27 11:46:49;;;;;;;8.32;4.22;;;20.50;45.20;;;;;;4993243;28;20054;-63
2021/12/27 11:49:15;;;;;;;9.60;4.30;;;20.50;45.30;;;;;;4993487;28;20398;-63
2021/12/27 11:51:42;;;;;;;10.23;4.53;;;20.50;45.30;;;;;;4994197;28;20482;-63
2021/12/27 11:54:28;;;;;;;11.70;4.80;;;20.50;45.30;;;;;;5009087;28;20050;-63
2021/12/27 11:56:54;;;;;;;10.32;4.75;;;20.50;45.30;;;;;;4993410;28;20138;-67
2021/12/27 11:59:25;;;;;;;10.27;4.50;;;20.50;45.30;;;;;;4992494;28;20549;-62
2021/12/27 12:01:55;;;;;;;12.15;4.32;;;20.50;45.50;;;;;;4991630;28;20117;-62
2021/12/27 12:04:40;;;;;;;10.95;5.20;;;20.50;45.60;;;;;;4994834;28;20081;-62
2021/12/27 12:07:07;;;;;;;11.27;4.57;;;20.50;45.80;;;;;;4993380;28;20082;-62
2021/12/27 12:09:45;;;;;;;8.63;4.18;;;20.50;45.80;;;;;;4994544;28;20039;-62
2021/12/27 12:12:13;;;;;;;10.10;4.57;;;20.50;45.90;;;;;;4993199;28;20383;-63
2021/12/27 12:14:38;;;;;;;11.65;4.70;;;20.50;45.90;;;;;;4993548;28;20125;-62
2021/12/27 12:17:09;;;;;;;10.98;4.40;;;20.60;46.10;;;;;;4994093;28;20454;-63
2021/12/27 12:19:36;;;;;;;11.52;5.15;;;20.50;46.10;;;;;;4994428;28;20046;-63
2021/12/27 12:22:02;;;;;;;13.13;4.88;;;20.50;46.30;;;;;;4992978;28;20624;-63
2021/12/27 12:24:27;;;;;;;10.10;4.85;;;20.50;46.50;;;;;;4994191;28;20053;-63
2021/12/27 12:26:56;;;;;;;10.13;4.43;;;20.60;46.60;;;;;;4993627;28;20042;-63
2021/12/27 12:29:21;;;;;;;;;;;20.60;46.70;;;;;;4993823;28;20559;-63
2021/12/27 12:31:47;;;;;;;10.70;4.53;;;20.60;46.70;;;;;;4992431;28;19922;-63
2021/12/27 12:34:20;;;;;;;9.50;4.28;;;20.60;46.70;;;;;;4993779;28;20370;-63
2021/12/27 12:36:56;;;;;;;10.57;4.55;;;20.60;46.90;;;;;;4993126;28;20034;-63
2021/12/27 12:39:23;;;;;;;11.60;5.22;;;20.60;46.90;;;;;;4993871;28;20053;-63
2021/12/27 12:41:49;;;;;;;10.48;4.70;;;20.60;47.00;;;;;;4993544;28;20121;-62
2021/12/27 12:44:14;;;;;;;12.27;4.95;;;20.60;47.00;;;;;;4993315;28;20054;-62
2021/12/27 12:46:46;;;;;;;11.25;4.68;;;20.70;47.10;;;;;;4994046;28;20129;-62